Time;durP1;ratioP1;P1;durP2;ratioP2;P2;SDS_P1;SDS_P2;PMS_P1;PMS_P2;Temp;Humidity;BMP_temperature;BMP_pressure;BME280_temperature;BME280_humidity;BME280_pressure;Samples;Min_cycle;Max_cycle;Signal;HPM_P1;HPM_P2
2022/07/04 00:00:52;;;;;;;1.80;1.30;;;;;;;27.72;42.04;99782.97;4173715;28;20247;-70
2022/07/04 00:02:54;;;;;;;2.53;1.50;;;;;;;27.29;42.89;99793.28;4173585;28;20290;-70
2022/07/04 00:04:56;;;;;;;4.18;1.50;;;;;;;28.04;41.59;99781.88;4172335;28;20236;-69
2022/07/04 00:06:58;;;;;;;2.95;1.50;;;;;;;27.18;42.67;99798.72;4173519;28;20243;-69
2022/07/04 00:08:59;;;;;;;3.30;1.65;;;;;;;28.12;41.14;99781.31;4173531;28;20301;-69
2022/07/04 00:11:01;;;;;;;2.40;1.60;;;;;;;28.37;40.49;99785.94;4178367;28;20234;-69
2022/07/04 00:13:04;;;;;;;2.13;1.40;;;;;;;28.16;41.65;99786.00;4193924;28;20231;-70
2022/07/04 00:15:07;;;;;;;3.20;1.50;;;;;;;27.99;42.00;99791.72;4190516;28;20287;-69
2022/07/04 00:17:09;;;;;;;3.20;1.60;;;;;;;27.71;41.59;99770.44;4217132;28;20304;-69
2022/07/04 00:19:11;;;;;;;1.98;1.40;;;;;;;27.88;40.47;99783.81;4198816;28;20211;-69
2022/07/04 00:21:12;;;;;;;2.08;1.30;;;;;;;27.16;41.79;99790.00;4194799;28;20289;-70
2022/07/04 00:23:14;;;;;;;3.80;1.55;;;;;;;27.95;40.67;99781.59;4176541;28;20235;-69
2022/07/04 00:25:16;;;;;;;2.95;1.63;;;;;;;28.17;40.10;99781.34;4175443;28;20227;-69
2022/07/04 00:27:17;;;;;;;2.58;1.85;;;;;;;28.34;40.22;99790.06;4175645;28;20704;-70
2022/07/04 00:29:19;;;;;;;1.88;1.50;;;;;;;27.77;41.22;99800.22;4177022;28;20686;-69
2022/07/04 00:31:21;;;;;;;4.25;1.55;;;;;;;27.86;40.98;99778.63;4176436;28;20232;-69
2022/07/04 00:33:23;;;;;;;3.00;1.65;;;;;;;28.10;40.25;99800.72;4175885;28;20963;-70
2022/07/04 00:35:24;;;;;;;3.00;1.60;;;;;;;27.51;41.56;99806.69;4175930;28;20832;-69
2022/07/04 00:37:26;;;;;;;3.03;1.60;;;;;;;27.27;41.96;99804.47;4176207;28;20239;-69
2022/07/04 00:39:28;;;;;;;3.97;2.28;;;;;;;26.95;42.71;99799.16;4176385;28;20286;-70
2022/07/04 00:41:30;;;;;;;3.10;1.67;;;;;;;26.84;42.95;99804.59;4175582;28;20236;-69
2022/07/04 00:43:32;;;;;;;2.35;1.67;;;;;;;26.71;43.07;99800.44;4175529;28;20231;-69
2022/07/04 00:45:53;;;;;;;5.65;1.70;;;;;;;26.36;43.45;99797.50;4175624;28;20232;-69
2022/07/04 00:47:55;;;;;;;4.47;1.80;;;;;;;26.33;43.43;99799.63;4176418;28;20294;-69
2022/07/04 00:49:57;;;;;;;1.77;1.63;;;;;;;26.26;43.95;99798.22;4207807;28;20234;-69
2022/07/04 00:52:00;;;;;;;4.50;1.80;;;;;;;26.90;42.94;99780.88;4170105;28;20300;-68
2022/07/04 00:54:01;;;;;;;2.03;1.60;;;;;;;26.75;43.32;99799.91;4176223;28;20227;-70
2022/07/04 00:56:04;;;;;;;1.92;1.60;;;;;;;26.79;43.35;99801.84;4174531;28;20285;-70
2022/07/04 00:58:06;;;;;;;3.83;1.50;;;;;;;26.33;43.79;99812.44;4176724;28;20748;-68
2022/07/04 01:00:08;;;;;;;4.68;1.80;;;;;;;26.67;43.60;99804.78;4175742;28;21035;-70
2022/07/04 01:02:10;;;;;;;3.30;1.67;;;;;;;26.83;43.19;99799.41;4175478;28;20240;-69
2022/07/04 01:04:12;;;;;;;5.10;1.90;;;;;;;27.34;42.20;99802.31;4175877;28;20644;-70
2022/07/04 01:06:14;;;;;;;2.83;1.70;;;;;;;27.63;41.40;99810.84;4174675;28;20322;-70
2022/07/04 01:08:15;;;;;;;3.38;1.48;;;;;;;27.31;42.12;99810.22;4176922;28;20786;-69
2022/07/04 01:10:17;;;;;;;2.88;1.73;;;;;;;27.61;41.87;99814.94;4176142;28;20239;-69
2022/07/04 01:12:28;;;;;;;2.25;1.83;;;;;;;28.12;40.70;99825.88;4176102;28;20800;-69
2022/07/04 01:14:30;;;;;;;4.90;1.90;;;;;;;28.23;40.24;99826.72;4176534;28;20818;-69
2022/07/04 01:16:32;;;;;;;4.28;1.77;;;;;;;28.26;40.33;99831.63;4175069;28;20235;-69
2022/07/04 01:18:35;;;;;;;2.78;1.98;;;;;;;28.19;40.58;99833.81;4176287;28;20308;-69
2022/07/04 01:20:37;;;;;;;5.50;2.47;;;;;;;28.10;41.19;99832.72;4181490;28;20238;-68
2022/07/04 01:22:39;;;;;;;2.00;1.75;;;;;;;27.73;41.96;99828.34;4176435;28;20285;-69
2022/07/04 01:24:40;;;;;;;2.13;1.90;;;;;;;27.40;42.41;99820.34;4174101;28;20235;-68
2022/07/04 01:26:42;;;;;;;2.22;1.77;;;;;;;26.68;44.06;99822.78;4168740;28;20236;-69
2022/07/04 01:28:45;;;;;;;3.00;1.60;;;;;;;27.16;42.26;99830.09;4176269;28;20720;-69
2022/07/04 01:30:46;;;;;;;2.50;1.65;;;;;;;27.63;41.39;99829.97;4176335;28;20235;-69
2022/07/04 01:32:48;;;;;;;1.85;1.70;;;;;;;27.87;41.28;99834.91;4176807;28;20290;-69
2022/07/04 01:34:50;;;;;;;3.03;1.88;;;;;;;27.96;40.86;99838.72;4192198;28;20647;-68
2022/07/04 01:36:52;;;;;;;3.13;1.90;;;;;;;26.84;43.07;99853.69;4191101;28;20690;-69
2022/07/04 01:38:56;;;;;;;2.50;1.70;;;;;;;26.02;45.10;99852.28;4192778;28;20243;-69
2022/07/04 01:40:57;;;;;;;4.70;1.80;;;;;;;26.12;44.62;99844.19;4189389;28;20293;-69
2022/07/04 01:42:59;;;;;;;2.20;1.73;;;;;;;26.34;44.15;99839.44;4192219;28;20304;-69
2022/07/04 01:45:01;;;;;;;2.13;1.85;;;;;;;26.52;43.86;99829.22;4191404;28;20739;-69
2022/07/04 01:47:03;;;;;;;3.65;1.88;;;;;;;26.31;44.60;99829.06;4192009;28;20755;-68
2022/07/04 01:49:04;;;;;;;4.70;1.80;;;;;;;26.09;44.79;99839.25;4182591;28;20820;-69
2022/07/04 01:51:06;;;;;;;5.72;1.60;;;;;;;26.22;45.06;99836.09;4181293;28;20231;-69
2022/07/04 01:53:08;;;;;;;2.55;1.50;;;;;;;26.59;44.29;99842.63;4175076;28;20227;-68
2022/07/04 01:55:11;;;;;;;3.28;1.67;;;;;;;26.90;43.69;99838.97;4175784;28;20232;-69
2022/07/04 01:57:12;;;;;;;1.58;1.48;;;;;;;26.86;44.72;99835.13;4175769;28;20704;-68
2022/07/04 01:59:14;;;;;;;2.20;1.70;;;;;;;26.61;45.04;99838.56;4175005;28;20318;-69
2022/07/04 02:01:31;;;;;;;2.25;1.65;;;;;;;26.77;44.84;99842.16;4188376;28;20235;-69
2022/07/04 02:03:32;;;;;;;2.28;1.70;;;;;;;26.99;44.50;99843.91;4192149;28;20235;-68
2022/07/04 02:05:36;;;;;;;1.80;1.60;;;;;;;27.62;43.04;99847.44;4190827;28;20257;-69
2022/07/04 02:07:38;;;;;;;5.40;1.67;;;;;;;26.92;44.37;99868.72;4178907;28;20285;-69
2022/07/04 02:09:40;;;;;;;6.10;1.90;;;;;;;27.39;43.26;99853.38;4175659;28;20278;-69
2022/07/04 02:14:04;;;;;;;2.33;1.55;;;;;;;27.21;43.60;99847.31;4174908;28;20250;-69
2022/07/04 02:16:05;;;;;;;2.70;1.98;;;;;;;27.70;42.89;99854.28;4174522;28;20232;-68
2022/07/04 02:18:09;;;;;;;5.72;2.10;;;;;;;27.29;43.30;99859.63;4175194;28;20318;-69
2022/07/04 02:20:11;;;;;;;3.53;2.10;;;;;;;26.90;44.99;99860.78;4177618;28;20317;-69
2022/07/04 02:22:14;;;;;;;3.53;1.98;;;;;;;26.69;44.81;99867.25;4177503;28;20240;-69
2022/07/04 02:24:15;;;;;;;3.58;1.80;;;;;;;27.05;44.37;99848.31;4175248;28;20262;-69
2022/07/04 02:26:17;;;;;;;5.53;1.95;;;;;;;26.85;45.58;99849.03;4175243;28;20286;-68
2022/07/04 02:28:19;;;;;;;2.95;1.83;;;;;;;26.96;44.52;99852.63;4175558;28;20236;-69
2022/07/04 02:30:20;;;;;;;2.85;1.88;;;;;;;26.89;44.83;99861.91;4175263;28;20263;-69
2022/07/04 02:32:22;;;;;;;5.38;1.60;;;;;;;27.06;44.24;99861.72;4189135;28;20257;-69
2022/07/04 02:34:24;;;;;;;3.13;1.90;;;;;;;26.83;44.30;99864.88;4191277;28;20288;-69
2022/07/04 02:36:25;;;;;;;3.22;2.00;;;;;;;26.55;45.02;99875.03;4191128;28;20882;-69
2022/07/04 02:38:27;;;;;;;1.83;1.60;;;;;;;26.48;45.83;99867.06;4191609;28;20223;-68
2022/07/04 02:40:29;;;;;;;5.38;1.95;;;;;;;26.20;46.49;99864.69;4190973;28;20227;-68
2022/07/04 02:42:32;;;;;;;3.08;1.80;;;;;;;25.73;46.92;99861.53;4194228;28;20231;-69
2022/07/04 02:44:33;;;;;;;3.28;1.95;;;;;;;26.15;46.02;99852.66;4189386;28;20751;-69
2022/07/04 02:46:35;;;;;;;3.30;1.70;;;;;;;25.83;46.57;99854.53;4191138;28;20297;-69
2022/07/04 02:48:37;;;;;;;3.72;1.80;;;;;;;25.63;46.47;99858.72;4184205;28;20801;-69
2022/07/04 02:50:39;;;;;;;2.95;1.80;;;;;;;25.85;46.58;99846.94;4179944;28;20231;-70
2022/07/04 02:52:40;;;;;;;3.63;1.58;;;;;;;25.86;45.97;99859.47;4175475;28;20643;-68
2022/07/04 02:54:42;;;;;;;2.03;1.70;;;;;;;25.47;46.76;99856.91;4174482;28;20266;-71
2022/07/04 02:56:45;;;;;;;3.15;1.52;;;;;;;25.17;47.77;99867.16;4174838;28;20266;-68
2022/07/04 02:58:46;;;;;;;3.03;1.80;;;;;;;26.47;44.81;99846.34;4174986;28;20277;-68
2022/07/04 03:00:48;;;;;;;1.73;1.50;;;;;;;26.56;44.77;99859.53;4174850;28;20232;-69
2022/07/04 03:02:49;;;;;;;2.42;1.85;;;;;;;26.33;44.25;99880.59;4174056;28;20667;-69
2022/07/04 03:04:51;;;;;;;3.35;1.70;;;;;;;26.29;44.96;99869.38;4173960;28;20277;-69
2022/07/04 03:06:53;;;;;;;2.85;1.80;;;;;;;26.14;44.92;99880.19;4174857;28;20683;-68
2022/07/04 03:08:54;;;;;;;9.48;2.10;;;;;;;26.28;44.98;99877.81;4174061;28;20592;-69
2022/07/04 03:10:56;;;;;;;3.63;1.75;;;;;;;25.83;45.45;99884.47;4175038;28;20959;-69
2022/07/04 03:12:58;;;;;;;4.20;1.90;;;;;;;25.48;45.94;99891.22;4174607;28;20243;-68
2022/07/04 03:15:07;;;;;;;5.72;2.88;;;;;;;24.99;46.40;99886.50;4174303;28;20235;-68
2022/07/04 03:17:09;;;;;;;4.55;1.88;;;;;;;25.61;44.80;99874.50;4175116;28;20773;-69
2022/07/04 03:19:10;;;;;;;3.03;1.83;;;;;;;26.22;43.93;99881.59;4173875;28;20251;-69
2022/07/04 03:30:54;;;;;;;3.55;1.90;;;;;;;26.40;44.95;99886.63;4174722;28;20242;-68
2022/07/04 03:32:56;;;;;;;3.08;2.03;;;;;;;26.44;44.82;99887.78;4174905;28;20266;-68
2022/07/04 03:34:58;;;;;;;3.58;2.15;;;;;;;25.69;46.54;99898.50;4174920;28;20248;-69
2022/07/04 03:36:59;;;;;;;3.40;2.10;;;;;;;25.69;46.67;99894.97;4174958;28;20235;-69
2022/07/04 03:39:02;;;;;;;3.47;1.98;;;;;;;25.47;47.42;99892.28;4175954;28;20713;-68
2022/07/04 03:41:04;;;;;;;5.30;2.10;;;;;;;25.57;46.82;99889.66;4175172;28;20287;-69
2022/07/04 03:43:08;;;;;;;3.05;1.80;;;;;;;24.97;48.26;99894.06;4174286;28;20236;-69
2022/07/04 03:45:10;;;;;;;1.80;1.70;;;;;;;25.05;48.05;99883.59;4180255;28;20247;-69
2022/07/04 03:47:12;;;;;;;1.80;1.70;;;;;;;25.49;47.13;99882.81;4194571;28;20292;-69
2022/07/04 03:49:13;;;;;;;4.55;1.70;;;;;;;26.36;45.50;99888.25;4182503;28;20917;-68
2022/07/04 03:51:15;;;;;;;2.63;1.60;;;;;;;26.51;45.75;99890.31;4184797;28;20281;-69
2022/07/04 03:53:19;;;;;;;3.42;1.90;;;;;;;26.68;45.05;99896.41;4177986;28;20235;-69
2022/07/04 03:55:21;;;;;;;3.38;1.90;;;;;;;26.71;44.73;99908.72;4176786;28;20234;-69
2022/07/04 03:57:23;;;;;;;3.95;1.90;;;;;;;25.81;46.50;99911.16;4178729;28;20277;-70
2022/07/04 03:59:24;;;;;;;1.85;1.70;;;;;;;25.75;46.21;99908.38;4178508;28;20247;-70
2022/07/04 04:01:26;;;;;;;3.20;2.13;;;;;;;24.78;48.61;99899.00;4177534;28;20282;-69
2022/07/04 04:05:48;;;;;;;2.28;1.83;;;;;;;24.84;48.50;99887.13;4175885;28;20235;-69
2022/07/04 04:07:50;;;;;;;2.80;1.80;;;;;;;25.41;47.70;99886.78;4178117;28;20262;-69
2022/07/04 04:09:51;;;;;;;3.75;1.85;;;;;;;26.10;45.89;99895.38;4177625;28;20224;-68
2022/07/04 04:11:53;;;;;;;5.38;2.00;;;;;;;26.02;46.14;99913.03;4176895;28;20231;-69
2022/07/04 04:13:55;;;;;;;2.83;1.70;;;;;;;25.78;46.66;99920.69;4178024;28;20232;-69
2022/07/04 04:15:56;;;;;;;2.47;1.80;;;;;;;25.65;46.92;99919.16;4177465;28;20301;-68
2022/07/04 04:17:58;;;;;;;2.25;1.88;;;;;;;25.37;47.58;99923.75;4177558;28;20700;-69
2022/07/04 04:20:00;;;;;;;3.17;1.92;;;;;;;25.42;47.58;99914.81;4178659;28;20232;-68
2022/07/04 04:22:02;;;;;;;2.90;2.05;;;;;;;25.45;47.67;99918.94;4183400;28;20231;-69
2022/07/04 04:24:04;;;;;;;2.03;1.80;;;;;;;25.99;46.74;99912.75;4179875;28;20257;-68
2022/07/04 04:26:05;;;;;;;2.33;1.83;;;;;;;26.17;46.48;99923.25;4193838;28;20468;-68
2022/07/04 04:28:07;;;;;;;2.40;2.00;;;;;;;26.66;44.97;99944.94;4195225;28;20292;-69
2022/07/04 04:30:09;;;;;;;2.95;2.20;;;;;;;26.34;45.24;99969.47;4196241;28;20227;-69
2022/07/04 04:32:11;;;;;;;3.60;2.35;;;;;;;25.64;46.63;99969.25;4194127;28;20239;-70
2022/07/04 04:34:13;;;;;;;4.03;2.20;;;;;;;25.85;46.49;99958.63;4193739;28;20591;-68
2022/07/04 04:36:14;;;;;;;3.85;2.00;;;;;;;25.92;46.45;99970.13;4192932;28;20293;-69
2022/07/04 04:38:16;;;;;;;4.60;2.28;;;;;;;25.36;47.41;99976.53;4193962;28;20281;-69
2022/07/04 04:40:18;;;;;;;4.40;2.10;;;;;;;26.28;45.73;99965.03;4194289;28;20296;-68
2022/07/04 04:42:19;;;;;;;2.92;2.15;;;;;;;26.19;45.61;99972.06;4193686;28;20232;-69
2022/07/04 04:44:21;;;;;;;5.97;2.10;;;;;;;25.99;45.84;99978.13;4194390;28;20235;-68
2022/07/04 04:46:23;;;;;;;2.20;1.90;;;;;;;25.88;45.96;99983.44;4192977;28;20650;-68
2022/07/04 04:48:25;;;;;;;2.55;1.90;;;;;;;25.99;45.70;99972.66;4189056;28;20247;-68
2022/07/04 04:50:26;;;;;;;4.75;2.10;;;;;;;26.46;44.81;99977.47;4180666;28;20227;-69
2022/07/04 04:52:28;;;;;;;1.92;1.58;;;;;;;25.84;46.77;99979.56;4178786;28;20776;-69
2022/07/04 04:54:30;;;;;;;3.22;2.08;;;;;;;25.77;46.87;99978.94;4176809;28;20257;-69
2022/07/04 04:56:31;;;;;;;2.83;1.80;;;;;;;26.49;45.26;99983.22;4176576;28;20236;-69
2022/07/04 04:58:33;;;;;;;2.00;1.80;;;;;;;26.38;45.38;99984.22;4176316;28;20235;-68
2022/07/04 05:00:35;;;;;;;4.25;2.00;;;;;;;26.37;45.52;99989.91;4176118;28;20231;-69
2022/07/04 05:02:37;;;;;;;2.13;1.90;;;;;;;26.32;45.47;99988.00;4177430;28;20232;-68
2022/07/04 05:04:39;;;;;;;6.72;2.33;;;;;;;26.14;46.19;99995.44;4175094;28;20791;-69
2022/07/04 05:06:41;;;;;;;2.42;2.10;;;;;;;26.60;45.33;99995.06;4179299;28;20239;-68
2022/07/04 05:08:43;;;;;;;2.30;1.85;;;;;;;26.60;45.69;99999.69;4194342;28;20289;-69
2022/07/04 05:10:44;;;;;;;4.25;2.15;;;;;;;26.82;44.59;99991.41;4185869;28;20741;-69
2022/07/04 05:12:46;;;;;;;3.88;2.25;;;;;;;26.37;45.45;100009.84;4180451;28;20231;-69
2022/07/04 05:14:48;;;;;;;2.90;1.77;;;;;;;26.74;45.25;100011.84;4176131;28;20317;-68
2022/07/04 05:16:49;;;;;;;4.25;2.20;;;;;;;26.93;44.96;100001.31;4177583;28;20953;-69
2022/07/04 05:18:51;;;;;;;2.00;1.85;;;;;;;27.08;44.55;100004.19;4177360;28;20243;-69
2022/07/04 05:20:53;;;;;;;2.30;1.80;;;;;;;24.94;46.36;100023.25;4182415;28;20238;-68
2022/07/04 05:22:54;;;;;;;4.00;1.98;;;;;;;25.12;47.28;99985.97;4176625;28;20739;-68
2022/07/04 05:24:56;;;;;;;3.95;1.83;;;;;;;26.85;44.22;99986.25;4176357;28;20240;-68
2022/07/04 05:26:57;;;;;;;2.28;1.95;;;;;;;27.32;43.03;100001.03;4176742;28;20243;-69
2022/07/04 05:28:59;;;;;;;1.92;1.80;;;;;;;27.26;43.42;100000.19;4176763;28;20290;-69
2022/07/04 05:31:01;;;;;;;6.50;2.20;;;;;;;27.39;43.54;100004.34;4176453;28;20235;-69
2022/07/04 05:33:03;;;;;;;4.45;1.95;;;;;;;27.28;43.73;100005.41;4175891;28;20285;-69
2022/07/04 05:35:05;;;;;;;3.70;1.88;;;;;;;27.71;42.46;100003.44;4176479;28;20262;-69
2022/07/04 05:37:06;;;;;;;3.85;2.00;;;;;;;27.81;41.95;100008.09;4177269;28;20746;-69
2022/07/04 05:39:08;;;;;;;3.33;1.85;;;;;;;27.53;42.18;100012.88;4176050;28;20239;-69
2022/07/04 05:41:09;;;;;;;4.53;1.70;;;;;;;27.58;42.56;100004.72;4176945;28;20862;-68
2022/07/04 05:43:11;;;;;;;3.25;1.80;;;;;;;27.11;42.38;100002.81;4176235;28;20282;-68
2022/07/04 05:45:14;;;;;;;3.03;1.95;;;;;;;27.37;40.96;99997.53;4174037;28;20239;-69
2022/07/04 05:47:15;;;;;;;2.55;1.40;;;;;;;26.79;42.50;99991.94;4176635;28;20231;-69
2022/07/04 05:49:17;;;;;;;5.38;1.98;;;;;;;27.42;40.20;99989.34;4176253;28;20259;-69
2022/07/04 05:51:19;;;;;;;5.25;1.52;;;;;;;27.19;40.95;99996.88;4182545;28;20281;-68
2022/07/04 05:53:20;;;;;;;4.22;1.90;;;;;;;26.61;41.52;99994.00;4176453;28;20315;-69
2022/07/04 05:55:22;;;;;;;2.08;1.55;;;;;;;26.63;41.75;99985.56;4175296;28;20282;-69
2022/07/04 05:57:24;;;;;;;2.55;1.60;;;;;;;26.92;41.49;99975.13;4176304;28;20716;-68
2022/07/04 05:59:25;;;;;;;2.97;1.60;;;;;;;27.44;41.17;99984.44;4176672;28;20228;-68
2022/07/04 06:01:27;;;;;;;3.17;1.70;;;;;;;27.39;40.45;99992.63;4175984;28;20348;-69
2022/07/04 06:03:29;;;;;;;2.00;1.60;;;;;;;27.50;39.61;99982.53;4175736;28;20315;-69
2022/07/04 06:05:31;;;;;;;5.38;2.13;;;;;;;26.38;40.98;99986.94;4175151;28;20585;-69
2022/07/04 06:07:32;;;;;;;2.55;1.67;;;;;;;26.14;41.64;99986.44;4174825;28;20731;-69
2022/07/04 06:09:34;;;;;;;3.45;1.88;;;;;;;25.68;41.78;99977.72;4176780;28;20286;-69
2022/07/04 06:11:36;;;;;;;1.83;1.42;;;;;;;26.86;41.02;99970.72;4176551;28;20285;-68
2022/07/04 06:13:37;;;;;;;2.35;1.70;;;;;;;26.60;41.66;99959.63;4175668;28;20235;-69
2022/07/04 06:15:39;;;;;;;2.28;1.80;;;;;;;26.93;40.47;99970.50;4175152;28;20281;-69
2022/07/04 06:17:42;;;;;;;5.35;1.70;;;;;;;27.10;40.90;99976.63;4176251;28;20600;-68
2022/07/04 06:19:43;;;;;;;5.63;1.77;;;;;;;27.07;40.62;99969.78;4175418;28;20240;-69
2022/07/04 06:21:45;;;;;;;3.35;1.83;;;;;;;27.06;41.31;99964.59;4181566;28;20236;-69
2022/07/04 06:23:47;;;;;;;5.97;2.20;;;;;;;25.90;41.99;99969.56;4176173;28;20239;-69
2022/07/04 06:25:49;;;;;;;2.83;1.77;;;;;;;26.04;42.17;99962.63;4173646;28;20239;-68
2022/07/04 06:27:52;;;;;;;7.50;2.83;;;;;;;26.03;42.02;99952.84;4175635;28;20220;-68
2022/07/04 06:29:53;;;;;;;4.65;2.00;;;;;;;26.26;41.91;99950.84;4175942;28;20223;-68
2022/07/04 06:31:55;;;;;;;4.95;1.70;;;;;;;26.83;41.40;99944.78;4177045;28;20285;-69
2022/07/04 06:36:17;;;;;;;3.50;2.00;;;;;;;26.89;41.39;99951.09;4175185;28;20840;-69
2022/07/04 06:38:24;;;;;;;1.80;1.70;;;;;;;26.75;41.38;99952.63;4175649;28;20695;-69
2022/07/04 06:40:25;;;;;;;2.20;1.60;;;;;;;26.43;41.34;99957.00;4175868;28;20373;-68
2022/07/04 06:42:27;;;;;;;2.55;1.80;;;;;;;25.93;41.99;99939.06;4174875;28;20713;-68
2022/07/04 06:44:29;;;;;;;4.93;1.85;;;;;;;25.68;42.06;99956.78;4175203;28;20232;-69
2022/07/04 06:46:30;;;;;;;3.38;1.80;;;;;;;26.16;41.49;99951.59;4175813;28;20235;-69
2022/07/04 06:48:32;;;;;;;3.42;1.77;;;;;;;25.37;43.35;99950.97;4174716;28;20234;-69
2022/07/04 06:50:34;;;;;;;3.88;1.90;;;;;;;25.71;43.00;99933.66;4180740;28;20231;-68
2022/07/04 06:52:41;;;;;;;2.40;1.92;;;;;;;26.06;41.22;99940.59;4167806;28;20235;-68
2022/07/04 06:54:43;;;;;;;2.72;1.90;;;;;;;26.28;41.00;99938.59;4173488;28;20240;-71
2022/07/04 06:56:45;;;;;;;3.55;1.77;;;;;;;25.95;41.29;99940.50;4176184;28;20258;-68
2022/07/04 06:58:46;;;;;;;3.65;1.98;;;;;;;26.11;42.12;99940.63;4175864;28;20231;-69
2022/07/04 07:00:48;;;;;;;2.42;1.70;;;;;;;25.01;43.06;99931.41;4174897;28;20236;-69
2022/07/04 07:02:50;;;;;;;3.42;2.00;;;;;;;25.10;42.95;99929.06;4175148;28;20784;-68
2022/07/04 07:04:55;;;;;;;3.03;1.90;;;;;;;26.20;42.38;99927.34;4174452;28;20240;-68
2022/07/04 07:06:56;;;;;;;2.17;1.70;;;;;;;25.48;42.22;99934.78;4175485;28;20510;-69
2022/07/04 07:08:58;;;;;;;5.82;1.77;;;;;;;26.47;41.41;99927.31;4176033;28;20247;-68
2022/07/04 07:11:12;;;;;;;4.43;2.05;;;;;;;26.49;41.72;99928.69;4185633;28;20829;-69
2022/07/04 07:13:15;;;;;;;1.70;1.60;;;;;;;26.63;41.71;99934.56;4191434;28;20296;-69
2022/07/04 07:15:18;;;;;;;4.05;1.90;;;;;;;26.08;41.55;99949.31;4191669;28;20237;-69
2022/07/04 07:17:20;;;;;;;2.65;2.08;;;;;;;26.66;40.94;99941.41;4191250;28;20268;-69
2022/07/04 07:19:22;;;;;;;6.25;2.28;;;;;;;26.23;41.59;99941.28;4193557;28;20227;-69
2022/07/04 07:21:24;;;;;;;1.63;1.52;;;;;;;26.72;40.26;99948.50;4194524;28;20610;-68
2022/07/04 07:23:25;;;;;;;2.45;2.03;;;;;;;26.74;40.71;99959.16;4194299;28;20273;-69
2022/07/04 07:25:27;;;;;;;4.45;1.67;;;;;;;26.64;41.59;99952.56;4195138;28;20235;-68
2022/07/04 07:27:28;;;;;;;2.55;1.80;;;;;;;26.28;41.16;99954.94;4195282;28;20227;-69
2022/07/04 07:29:31;;;;;;;1.90;1.80;;;;;;;26.69;41.05;99938.97;4194429;28;20238;-68
2022/07/04 07:31:32;;;;;;;4.47;1.92;;;;;;;27.02;40.57;99949.81;4195021;28;20247;-69
2022/07/04 07:33:34;;;;;;;1.67;1.52;;;;;;;26.89;40.97;99941.00;4194619;28;20752;-69
2022/07/04 07:35:36;;;;;;;3.67;1.70;;;;;;;27.05;41.02;99939.19;4194354;28;20284;-69
2022/07/04 07:37:38;;;;;;;2.15;1.60;;;;;;;26.74;41.02;99950.97;4195527;28;20234;-69
2022/07/04 07:39:40;;;;;;;3.70;1.75;;;;;;;26.65;41.24;99953.38;4194564;28;20284;-68
2022/07/04 07:41:43;;;;;;;3.42;1.70;;;;;;;27.09;41.41;99958.59;4170465;28;20403;-68
2022/07/04 07:43:44;;;;;;;3.08;1.75;;;;;;;27.23;40.42;99959.78;4178101;28;20659;-69
2022/07/04 07:45:46;;;;;;;4.72;1.70;;;;;;;26.89;41.27;99960.09;4177108;28;20288;-69
2022/07/04 07:47:48;;;;;;;4.55;2.22;;;;;;;27.65;39.76;99955.31;4178494;28;20315;-69
2022/07/04 07:49:49;;;;;;;2.45;1.70;;;;;;;27.89;40.37;99954.88;4178013;28;20299;-69
2022/07/04 07:51:51;;;;;;;4.72;2.10;;;;;;;26.74;40.22;99961.91;4183851;28;20961;-69
2022/07/04 07:53:53;;;;;;;5.05;1.90;;;;;;;26.51;42.27;99962.00;4177851;28;20228;-69
2022/07/04 07:56:14;;;;;;;1.83;1.67;;;;;;;27.46;40.47;99960.41;4177666;28;20850;-68
2022/07/04 07:58:16;;;;;;;2.42;2.00;;;;;;;27.46;41.61;99963.16;4177778;28;20257;-69
2022/07/04 08:00:18;;;;;;;3.97;1.60;;;;;;;28.07;39.80;99950.78;4178251;28;20293;-69
2022/07/04 08:04:59;;;;;;;2.42;1.73;;;;;;;27.89;39.97;99958.41;4177407;28;20294;-69
2022/07/04 08:07:07;;;;;;;4.30;1.70;;;;;;;27.77;39.53;99966.84;4178380;28;20253;-68
2022/07/04 08:09:24;;;;;;;3.67;1.70;;;;;;;27.30;39.87;99967.72;4176871;28;20292;-68
2022/07/04 08:11:26;;;;;;;1.92;1.55;;;;;;;28.24;38.69;99956.84;4177532;28;20228;-67
2022/07/04 08:13:28;;;;;;;4.70;1.90;;;;;;;27.67;38.94;99966.81;4177874;28;20232;-69
2022/07/04 08:15:30;;;;;;;4.82;2.10;;;;;;;27.68;39.05;99968.44;4176935;28;20847;-68
2022/07/04 08:17:32;;;;;;;4.38;2.10;;;;;;;27.74;38.92;99952.91;4178140;28;20228;-70
2022/07/04 08:19:34;;;;;;;4.05;2.15;;;;;;;28.20;38.82;99949.47;4176400;28;20228;-70
2022/07/04 08:21:35;;;;;;;3.35;1.92;;;;;;;27.91;38.96;99945.28;4184005;28;20232;-68
2022/07/04 08:23:57;;;;;;;3.58;2.00;;;;;;;28.07;40.04;99937.91;4177430;28;20266;-70
2022/07/04 08:26:19;;;;;;;3.17;1.80;;;;;;;27.40;41.05;99936.94;4176962;28;20259;-68
2022/07/04 08:28:20;;;;;;;2.20;1.75;;;;;;;27.10;40.47;99923.97;4177883;28;20827;-68
2022/07/04 08:30:22;;;;;;;5.22;2.00;;;;;;;27.88;38.85;99923.97;4177172;28;20227;-71
2022/07/04 08:32:23;;;;;;;3.78;2.00;;;;;;;27.66;40.09;99912.47;4175986;28;20348;-67
2022/07/04 08:34:25;;;;;;;12.43;2.58;;;;;;;27.92;39.53;99925.09;4177133;28;20320;-68
2022/07/04 08:36:27;;;;;;;2.45;1.88;;;;;;;28.67;39.17;99921.00;4176860;28;20247;-68
2022/07/04 08:38:29;;;;;;;3.38;1.70;;;;;;;27.67;40.02;99919.53;4177123;28;20664;-70
2022/07/04 08:40:31;;;;;;;5.05;2.35;;;;;;;27.66;40.07;99926.94;4178226;28;20235;-70
2022/07/04 08:42:37;;;;;;;3.70;2.25;;;;;;;28.59;38.56;99896.94;4177921;28;20283;-71
2022/07/04 08:44:42;;;;;;;3.95;1.75;;;;;;;28.50;40.27;99915.84;4175950;28;20240;-70
2022/07/04 08:46:44;;;;;;;2.83;2.05;;;;;;;27.77;39.68;99916.84;4177577;28;20232;-70
2022/07/04 08:48:52;;;;;;;2.80;1.50;;;;;;;27.06;39.85;99912.72;4177573;28;20314;-71
2022/07/04 08:50:59;;;;;;;1.90;1.77;;;;;;;27.48;39.90;99905.53;4183805;28;20243;-70
2022/07/04 08:53:12;;;;;;;3.67;1.88;;;;;;;27.07;40.40;99911.66;4177007;28;20235;-70
2022/07/04 09:00:16;;;;;;;2.47;1.88;;;;;;;28.58;38.01;99903.50;4158468;28;20745;-68
2022/07/04 09:02:20;;;;;;;3.33;1.70;;;;;;;28.53;38.27;99893.41;4158762;28;20283;-69
2022/07/04 09:04:22;;;;;;;2.70;1.70;;;;;;;28.85;38.31;99895.81;4174148;28;20224;-69
2022/07/04 09:06:24;;;;;;;3.03;1.92;;;;;;;27.71;38.93;99905.09;4176486;28;20235;-68
2022/07/04 09:08:25;;;;;;;2.90;1.90;;;;;;;27.89;38.33;99909.22;4177393;28;20258;-69
2022/07/04 09:10:28;;;;;;;6.88;2.25;;;;;;;28.22;38.38;99898.06;4177196;28;20775;-68
2022/07/04 09:12:29;;;;;;;4.07;1.60;;;;;;;28.56;38.56;99906.50;4176392;28;20665;-68
2022/07/04 09:14:51;;;;;;;2.40;1.58;;;;;;;28.35;38.14;99892.84;4177081;28;20318;-70
2022/07/04 09:16:55;;;;;;;4.18;1.98;;;;;;;28.27;39.50;99878.94;4177373;28;20244;-69
2022/07/04 09:18:57;;;;;;;2.28;1.40;;;;;;;28.80;38.53;99884.06;4176426;28;20228;-69
2022/07/04 09:21:06;;;;;;;4.05;1.80;;;;;;;27.84;39.25;99891.97;4185894;28;20300;-68
2022/07/04 09:23:21;;;;;;;5.38;1.70;;;;;;;27.27;39.88;99886.38;4193579;28;20230;-69
2022/07/04 09:25:24;;;;;;;4.07;1.60;;;;;;;27.61;39.46;99897.69;4192638;28;20235;-69
2022/07/04 09:27:34;;;;;;;3.63;1.75;;;;;;;28.72;37.93;99880.00;4194126;28;20231;-69
2022/07/04 09:29:53;;;;;;;4.00;1.90;;;;;;;28.86;38.17;99880.22;4192740;28;20235;-69
2022/07/04 09:31:55;;;;;;;3.65;1.65;;;;;;;29.25;38.05;99895.97;4193417;28;20227;-68
2022/07/04 09:33:59;;;;;;;3.75;1.85;;;;;;;27.07;40.49;99898.00;4192674;28;20235;-69
2022/07/04 09:36:11;;;;;;;1.92;1.70;;;;;;;28.81;38.64;99883.78;4192560;28;20867;-70
2022/07/04 09:38:21;;;;;;;2.47;1.80;;;;;;;29.11;37.75;99895.72;4193348;28;20304;-69
2022/07/04 09:43:00;;;;;;;2.33;1.70;;;;;;;28.06;38.75;99921.81;4192111;28;20295;-69
2022/07/04 09:45:10;;;;;;;16.17;3.00;;;;;;;29.44;38.30;99898.91;4190318;28;20293;-69
2022/07/04 09:47:24;;;;;;;3.40;1.73;;;;;;;28.98;38.68;99908.06;4176608;28;20239;-69
2022/07/04 09:49:26;;;;;;;5.22;1.80;;;;;;;28.89;38.22;99907.84;4176797;28;20232;-70
2022/07/04 09:51:42;;;;;;;10.27;2.05;;;;;;;29.03;37.00;99902.59;4183369;28;20322;-68
2022/07/04 09:53:45;;;;;;;3.28;1.60;;;;;;;29.63;36.67;99904.53;4176599;28;20235;-69
2022/07/04 09:55:53;;;;;;;1.98;1.70;;;;;;;28.88;37.79;99922.63;4175640;28;20239;-70
2022/07/04 09:57:57;;;;;;;5.03;1.70;;;;;;;29.54;36.68;99914.44;4176570;28;20702;-69
2022/07/04 10:00:16;;;;;;;3.90;1.70;;;;;;;30.21;35.96;99921.16;4176006;28;20293;-69
2022/07/04 10:02:18;;;;;;;1.50;1.40;;;;;;;29.60;36.94;99936.06;4176461;28;20228;-69
2022/07/04 10:04:21;;;;;;;3.50;1.45;;;;;;;30.07;36.83;99928.41;4180789;28;20642;-69
2022/07/04 10:06:25;;;;;;;6.10;1.90;;;;;;;29.05;37.60;99932.41;4189619;28;20240;-69